createdAt,value
2018-09-22T00:00:16.584Z,2.47
2018-09-22T00:02:44.629Z,2.33
2018-09-22T00:05:12.713Z,2.20
2018-09-22T00:07:40.857Z,2.27
2018-09-22T00:10:08.912Z,2.10
2018-09-22T00:12:36.951Z,2.57
2018-09-22T00:15:05.125Z,2.07
2018-09-22T00:17:33.268Z,2.83
2018-09-22T00:20:01.362Z,2.40
2018-09-22T00:22:29.409Z,2.60
2018-09-22T00:24:57.465Z,2.60
2018-09-22T00:27:25.508Z,2.83
2018-09-22T00:29:53.617Z,2.97
2018-09-22T00:32:21.641Z,2.53
2018-09-22T00:34:49.884Z,3.10
2018-09-22T00:37:17.984Z,2.60
2018-09-22T00:39:46.294Z,2.30
2018-09-22T00:42:14.317Z,2.17
2018-09-22T00:44:42.407Z,2.47
2018-09-22T00:47:10.498Z,2.50
2018-09-22T00:49:38.554Z,2.50
2018-09-22T00:52:06.697Z,2.23
2018-09-22T00:54:34.755Z,2.97
2018-09-22T00:57:03.015Z,2.90
2018-09-22T00:59:31.081Z,2.70
2018-09-22T01:01:59.195Z,2.53
2018-09-22T01:04:27.266Z,2.43
2018-09-22T01:06:55.317Z,2.20
2018-09-22T01:09:23.389Z,2.27
2018-09-22T01:11:51.473Z,3.27
2018-09-22T01:14:19.501Z,2.67
2018-09-22T01:16:47.658Z,2.13
2018-09-22T01:19:15.990Z,2.33
2018-09-22T01:21:44.036Z,2.40
2018-09-22T01:24:12.073Z,2.37
2018-09-22T01:26:40.141Z,2.67
2018-09-22T01:29:08.244Z,2.70
2018-09-22T01:31:36.369Z,2.33
2018-09-22T01:34:04.407Z,2.50
2018-09-22T01:36:32.542Z,2.57
2018-09-22T01:39:00.579Z,2.33
2018-09-22T01:41:28.628Z,2.47
2018-09-22T01:43:56.692Z,3.27
2018-09-22T01:46:24.723Z,2.30
2018-09-22T01:48:52.757Z,2.60
2018-09-22T01:51:20.827Z,2.40
2018-09-22T01:53:48.906Z,2.57
2018-09-22T01:56:16.917Z,2.87
2018-09-22T01:58:45.030Z,2.40
2018-09-22T02:01:13.100Z,2.73
2018-09-22T02:03:41.153Z,2.50
2018-09-22T02:06:09.188Z,2.17
2018-09-22T02:08:37.257Z,2.40
2018-09-22T02:11:05.790Z,2.30
2018-09-22T02:13:33.805Z,2.10
2018-09-22T02:16:01.862Z,2.23
2018-09-22T02:18:29.936Z,2.33
2018-09-22T02:20:57.958Z,2.50
2018-09-22T02:23:26.036Z,2.57
2018-09-22T02:25:54.277Z,2.40
2018-09-22T02:28:22.290Z,2.90
2018-09-22T02:30:50.487Z,2.40
2018-09-22T02:33:18.505Z,2.30
2018-09-22T02:35:46.557Z,2.27
2018-09-22T02:38:14.669Z,2.10
2018-09-22T02:40:42.733Z,2.23
2018-09-22T02:43:10.795Z,3.03
2018-09-22T02:45:38.869Z,2.60
2018-09-22T02:48:07.024Z,2.37
2018-09-22T02:50:35.057Z,2.30
2018-09-22T02:53:03.109Z,2.67
2018-09-22T02:55:31.163Z,2.50
2018-09-22T02:57:59.235Z,2.43
2018-09-22T03:00:27.309Z,3.53
2018-09-22T03:02:55.334Z,2.20
2018-09-22T03:05:23.387Z,2.23
2018-09-22T03:07:51.504Z,2.30
2018-09-22T03:10:19.564Z,2.40
2018-09-22T03:12:47.585Z,2.53
2018-09-22T03:15:15.678Z,2.37
2018-09-22T03:17:43.716Z,2.60
2018-09-22T03:20:11.769Z,2.37
2018-09-22T03:22:39.841Z,2.90
2018-09-22T03:25:07.908Z,3.23
2018-09-22T03:27:35.943Z,2.40
2018-09-22T03:30:04.017Z,2.67
2018-09-22T03:32:32.254Z,2.33
2018-09-22T03:35:00.316Z,2.20
2018-09-22T03:37:28.337Z,2.40
2018-09-22T03:39:56.406Z,2.10
2018-09-22T03:42:24.595Z,3.00
2018-09-22T03:44:52.628Z,2.37
2018-09-22T03:47:20.657Z,1.93
2018-09-22T03:49:48.709Z,2.27
2018-09-22T03:52:16.745Z,2.30
2018-09-22T03:54:44.794Z,2.60
2018-09-22T03:57:12.888Z,2.10
2018-09-22T03:59:41.126Z,2.17
2018-09-22T04:02:09.191Z,2.37
2018-09-22T04:04:37.227Z,2.23
2018-09-22T04:07:05.421Z,2.87
2018-09-22T04:09:33.489Z,1.90
2018-09-22T04:12:01.524Z,2.40
2018-09-22T04:14:29.566Z,2.10
2018-09-22T04:16:57.614Z,2.30
2018-09-22T04:19:25.684Z,2.50
2018-09-22T04:21:53.724Z,2.00
2018-09-22T04:24:21.862Z,3.33
2018-09-22T04:26:49.921Z,2.70
2018-09-22T04:29:17.968Z,2.13
2018-09-22T04:31:46.014Z,2.50
2018-09-22T04:34:14.057Z,2.33
2018-09-22T04:36:42.126Z,2.77
2018-09-22T04:39:10.142Z,2.50
2018-09-22T04:41:38.212Z,2.60
2018-09-22T04:44:06.455Z,1.80
2018-09-22T04:46:34.469Z,2.37
2018-09-22T04:49:02.517Z,1.80
2018-09-22T04:51:30.585Z,2.33
2018-09-22T04:53:58.608Z,2.30
2018-09-22T04:56:26.725Z,2.40
2018-09-22T04:58:54.802Z,2.17
2018-09-22T05:01:22.914Z,2.27
2018-09-22T05:03:51.007Z,2.30
2018-09-22T05:06:19.051Z,2.53
2018-09-22T05:08:47.091Z,2.77
2018-09-22T05:11:15.124Z,2.20
2018-09-22T05:13:43.190Z,2.60
2018-09-22T05:16:11.275Z,2.53
2018-09-22T05:18:39.314Z,2.43
2018-09-22T05:21:07.353Z,2.37
2018-09-22T05:23:35.378Z,2.30
2018-09-22T05:26:03.446Z,2.80
2018-09-22T05:28:31.473Z,2.70
2018-09-22T05:30:59.519Z,3.03
2018-09-22T05:33:27.582Z,2.60
2018-09-22T05:35:55.585Z,2.13
2018-09-22T05:38:23.645Z,3.10
2018-09-22T05:40:51.691Z,3.10
2018-09-22T05:43:19.833Z,2.93
2018-09-22T05:45:47.880Z,2.83
2018-09-22T05:50:50.653Z,2.50
2018-09-22T05:53:18.839Z,3.00
2018-09-22T05:55:46.866Z,2.80
2018-09-22T05:58:15.015Z,2.30
2018-09-22T06:00:42.969Z,2.87
2018-09-22T06:03:11.746Z,2.63
2018-09-22T06:05:39.789Z,2.87
2018-09-22T06:08:07.880Z,2.93
2018-09-22T06:10:36.016Z,2.13
2018-09-22T06:13:04.098Z,3.10
2018-09-22T06:15:32.432Z,2.90
2018-09-22T06:18:00.615Z,2.70
2018-09-22T06:20:28.756Z,2.70
2018-09-22T06:22:56.878Z,2.60
2018-09-22T06:25:24.964Z,2.43
2018-09-22T06:27:52.994Z,2.47
2018-09-22T06:30:21.397Z,2.93
2018-09-22T06:32:49.472Z,2.47
2018-09-22T06:35:17.537Z,2.60
2018-09-22T06:37:45.618Z,2.83
2018-09-22T06:40:13.773Z,3.10
2018-09-22T06:42:41.857Z,2.57
2018-09-22T06:45:09.893Z,2.50
2018-09-22T06:47:37.932Z,2.77
2018-09-22T06:50:06.056Z,2.57
2018-09-22T06:52:34.154Z,2.70
2018-09-22T06:55:02.245Z,2.90
2018-09-22T06:57:30.482Z,2.83
2018-09-22T06:59:58.553Z,3.03
2018-09-22T07:02:26.648Z,4.00
2018-09-22T07:04:54.716Z,2.43
2018-09-22T07:07:22.787Z,2.67
2018-09-22T07:09:50.867Z,2.50
2018-09-22T07:12:19.021Z,2.50
2018-09-22T07:14:47.232Z,3.03
2018-09-22T07:17:15.265Z,2.77
2018-09-22T07:19:43.498Z,2.70
2018-09-22T07:22:11.609Z,3.07
2018-09-22T07:24:39.758Z,2.90
2018-09-22T07:27:07.949Z,2.77
2018-09-22T07:29:36.021Z,2.73
2018-09-22T07:32:04.101Z,2.97
2018-09-22T07:34:32.162Z,2.10
2018-09-22T07:37:00.393Z,2.30
2018-09-22T07:39:28.680Z,2.80
2018-09-22T07:41:56.757Z,2.33
2018-09-22T07:44:24.820Z,2.97
2018-09-22T07:46:53.652Z,3.60
2018-09-22T07:49:21.817Z,2.73
2018-09-22T07:51:50.177Z,3.00
2018-09-22T07:54:23.472Z,2.73
2018-09-22T07:56:51.556Z,2.93
2018-09-22T07:59:19.665Z,3.73
2018-09-22T08:01:50.535Z,3.10
2018-09-22T08:04:18.582Z,3.23
2018-09-22T08:06:46.686Z,2.63
2018-09-22T08:09:19.422Z,2.70
2018-09-22T08:11:50.440Z,2.67
2018-09-22T08:14:22.635Z,2.57
2018-09-22T08:16:52.218Z,2.53
2018-09-22T08:19:20.491Z,2.90
2018-09-22T08:21:48.695Z,2.80
2018-09-22T08:24:16.797Z,2.50
2018-09-22T08:26:45.265Z,2.70
2018-09-22T08:29:13.436Z,2.83
2018-09-22T08:31:41.536Z,2.73
2018-09-22T08:34:09.782Z,2.57
2018-09-22T08:36:37.903Z,3.00
2018-09-22T08:39:07.741Z,3.13
2018-09-22T08:41:35.856Z,2.77
2018-09-22T08:44:03.982Z,3.10
2018-09-22T08:46:32.273Z,3.03
2018-09-22T08:49:00.461Z,3.27
2018-09-22T08:51:28.529Z,2.73
2018-09-22T08:53:58.288Z,2.43
2018-09-22T08:56:34.257Z,4.57
2018-09-22T08:59:07.543Z,2.53
2018-09-22T09:01:35.620Z,2.77
2018-09-22T09:04:04.897Z,2.97
2018-09-22T09:06:39.528Z,2.60
2018-09-22T09:09:09.273Z,2.23
2018-09-22T09:11:37.400Z,2.93
2018-09-22T09:14:05.628Z,2.40
2018-09-22T09:16:33.678Z,2.70
2018-09-22T09:19:01.770Z,2.30
2018-09-22T09:21:29.854Z,2.67
2018-09-22T09:23:57.922Z,3.13
2018-09-22T09:26:26.001Z,2.57
2018-09-22T09:28:54.125Z,2.27
2018-09-22T09:31:22.844Z,2.53
2018-09-22T09:33:50.997Z,2.40
2018-09-22T09:36:19.234Z,2.90
2018-09-22T09:38:47.344Z,2.77
2018-09-22T09:41:15.508Z,2.57
2018-09-22T09:43:43.684Z,2.20
2018-09-22T09:46:11.694Z,2.37
2018-09-22T09:48:39.718Z,3.00
2018-09-22T09:51:07.825Z,2.50
2018-09-22T09:53:35.913Z,2.10
2018-09-22T09:56:04.030Z,2.20
2018-09-22T09:58:32.154Z,2.57
2018-09-22T10:01:00.207Z,2.17
2018-09-22T10:03:28.402Z,2.10
2018-09-22T10:05:56.583Z,1.90
2018-09-22T10:08:24.675Z,1.70
2018-09-22T10:10:52.821Z,2.33
2018-09-22T10:13:21.107Z,2.10
2018-09-22T10:15:49.184Z,3.33
2018-09-22T10:18:17.223Z,1.60
2018-09-22T10:20:45.285Z,1.80
2018-09-22T10:23:13.377Z,1.90
2018-09-22T10:25:41.476Z,1.93
2018-09-22T10:28:09.643Z,1.90
2018-09-22T10:30:37.900Z,2.30
2018-09-22T10:33:06.155Z,1.90
2018-09-22T10:35:34.202Z,2.30
2018-09-22T10:38:02.246Z,2.37
2018-09-22T10:40:30.462Z,1.73
2018-09-22T10:42:58.525Z,2.00
2018-09-22T10:45:26.677Z,2.00
2018-09-22T10:47:54.756Z,2.00
2018-09-22T10:50:22.803Z,2.80
2018-09-22T10:52:50.958Z,1.60
2018-09-22T10:55:18.958Z,1.83
2018-09-22T10:57:47.065Z,2.00
2018-09-22T11:00:15.151Z,1.70
2018-09-22T11:02:43.174Z,1.70
2018-09-22T11:05:11.247Z,1.87
2018-09-22T11:07:39.321Z,1.80
2018-09-22T11:10:07.555Z,1.80
2018-09-22T11:12:35.604Z,1.83
2018-09-22T11:15:03.864Z,2.10
2018-09-22T11:17:32.006Z,1.83
2018-09-22T11:20:00.186Z,2.10
2018-09-22T11:22:28.357Z,1.60
2018-09-22T11:24:56.428Z,2.47
2018-09-22T11:27:24.470Z,2.20
2018-09-22T11:29:52.518Z,1.90
2018-09-22T11:32:20.576Z,2.00
2018-09-22T11:34:48.708Z,2.20
2018-09-22T11:37:16.772Z,2.07
2018-09-22T11:39:45.423Z,2.13
2018-09-22T11:42:13.580Z,1.50
2018-09-22T11:44:41.829Z,2.23
2018-09-22T11:47:09.899Z,1.50
2018-09-22T11:49:37.986Z,2.07
2018-09-22T11:52:06.301Z,1.90
2018-09-22T11:54:34.364Z,1.93
2018-09-22T11:57:02.511Z,1.60
2018-09-22T11:59:30.613Z,2.00
2018-09-22T12:01:58.788Z,1.53
2018-09-22T12:04:26.768Z,1.60
2018-09-22T12:06:54.852Z,1.50
2018-09-22T12:09:22.938Z,1.80
2018-09-22T12:11:51.199Z,1.63
2018-09-22T12:14:19.259Z,1.63
2018-09-22T12:16:47.298Z,1.90
2018-09-22T12:19:15.397Z,1.87
2018-09-22T12:21:43.446Z,2.10
2018-09-22T12:24:11.569Z,1.67
2018-09-22T12:26:39.640Z,1.80
2018-09-22T12:29:07.750Z,1.80
2018-09-22T12:31:35.858Z,1.97
2018-09-22T12:34:03.912Z,1.97
2018-09-22T12:36:32.199Z,2.00
2018-09-22T12:39:00.487Z,2.37
2018-09-22T12:41:28.572Z,1.87
2018-09-22T12:43:56.732Z,1.63
2018-09-22T12:46:24.761Z,2.37
2018-09-22T12:48:52.813Z,1.60
2018-09-22T12:51:20.949Z,1.80
2018-09-22T12:53:49.223Z,1.70
2018-09-22T12:56:17.308Z,1.80
2018-09-22T12:58:45.368Z,1.47
2018-09-22T13:01:13.405Z,1.70
2018-09-22T13:03:41.512Z,1.50
2018-09-22T13:06:09.552Z,1.93
2018-09-22T13:08:37.571Z,1.50
2018-09-22T13:11:05.670Z,1.73
2018-09-22T13:13:33.839Z,2.07
2018-09-22T13:16:01.889Z,1.60
2018-09-22T13:18:30.233Z,1.50
2018-09-22T13:20:58.286Z,1.00
2018-09-22T13:23:26.433Z,1.60
2018-09-22T13:25:54.600Z,1.63
2018-09-22T13:28:22.758Z,1.20
2018-09-22T13:30:50.785Z,1.47
2018-09-22T13:33:18.857Z,1.23
2018-09-22T13:35:46.903Z,1.23
2018-09-22T13:38:14.980Z,1.40
2018-09-22T13:40:43.143Z,1.30
2018-09-22T13:43:11.311Z,1.37
2018-09-22T13:45:39.346Z,1.20
2018-09-22T13:48:07.449Z,1.20
2018-09-22T13:50:35.518Z,1.80
2018-09-22T13:53:03.729Z,1.40
2018-09-22T13:55:31.824Z,1.13
2018-09-22T13:57:59.891Z,1.40
2018-09-22T14:00:27.955Z,1.53
2018-09-22T14:02:56.074Z,1.60
2018-09-22T14:05:24.402Z,1.60
2018-09-22T14:07:52.742Z,1.50
2018-09-22T14:10:21.077Z,1.60
2018-09-22T14:12:49.068Z,1.93
2018-09-22T14:15:17.253Z,1.43
2018-09-22T14:17:45.331Z,1.40
2018-09-22T14:20:13.384Z,1.30
2018-09-22T14:22:41.452Z,1.40
2018-09-22T14:25:09.576Z,1.60
2018-09-22T14:27:37.724Z,1.70
2018-09-22T14:30:06.097Z,1.30
2018-09-22T14:32:34.303Z,1.30
2018-09-22T14:35:02.454Z,1.73
2018-09-22T14:37:30.653Z,1.60
2018-09-22T14:39:58.793Z,1.30
2018-09-22T14:42:26.844Z,1.37
2018-09-22T14:44:55.169Z,1.30
2018-09-22T14:47:23.327Z,1.27
2018-09-22T14:49:51.540Z,1.07
2018-09-22T14:52:19.757Z,1.13
2018-09-22T14:54:47.858Z,1.10
2018-09-22T14:57:15.935Z,1.40
2018-09-22T14:59:44.076Z,1.20
2018-09-22T15:02:12.140Z,1.20
2018-09-22T15:04:40.199Z,0.80
2018-09-22T15:07:08.307Z,1.10
2018-09-22T15:09:36.551Z,1.37
2018-09-22T15:12:04.957Z,1.40
2018-09-22T15:14:33.082Z,1.13
2018-09-22T15:17:01.295Z,1.67
2018-09-22T15:19:29.376Z,1.40
2018-09-22T15:21:57.469Z,1.13
2018-09-22T15:24:25.566Z,1.20
2018-09-22T15:27:00.408Z,1.40
2018-09-22T15:29:28.527Z,1.33
2018-09-22T15:31:56.786Z,1.50
2018-09-22T15:34:24.983Z,1.70
2018-09-22T15:36:53.117Z,1.37
2018-09-22T15:39:21.171Z,1.87
2018-09-22T15:41:49.244Z,1.57
2018-09-22T15:44:17.272Z,1.50
2018-09-22T15:46:45.341Z,1.70
2018-09-22T15:49:13.410Z,1.50
2018-09-22T15:51:41.462Z,1.40
2018-09-22T15:54:09.545Z,1.20
2018-09-22T15:56:37.664Z,1.50
2018-09-22T15:59:05.937Z,1.40
2018-09-22T16:01:40.922Z,1.13
2018-09-22T16:04:09.082Z,1.40
2018-09-22T16:06:37.166Z,1.40
2018-09-22T16:09:07.411Z,1.00
2018-09-22T16:11:35.436Z,1.47
2018-09-22T16:14:03.526Z,1.53
2018-09-22T16:16:31.624Z,1.03
2018-09-22T16:18:59.707Z,1.27
2018-09-22T16:21:27.790Z,1.70
2018-09-22T16:23:55.818Z,1.53
2018-09-22T16:26:23.878Z,1.33
2018-09-22T16:28:52.042Z,1.60
2018-09-22T16:31:20.131Z,1.30
2018-09-22T16:33:48.209Z,1.30
2018-09-22T16:36:16.295Z,1.20
2018-09-22T16:38:44.441Z,1.47
2018-09-22T16:41:12.551Z,1.20
2018-09-22T16:43:40.564Z,1.07
2018-09-22T16:46:08.646Z,1.10
2018-09-22T16:48:36.795Z,1.30
2018-09-22T16:51:04.865Z,1.40
2018-09-22T16:53:33.116Z,1.40
2018-09-22T16:56:01.220Z,1.80
2018-09-22T16:58:29.307Z,1.40
2018-09-22T17:00:57.393Z,1.87
2018-09-22T17:03:25.461Z,1.50
2018-09-22T17:05:53.534Z,1.43
2018-09-22T17:08:21.697Z,1.60
2018-09-22T17:10:49.836Z,1.60
2018-09-22T17:13:17.909Z,1.40
2018-09-22T17:15:45.982Z,1.53
2018-09-22T17:18:14.038Z,1.43
2018-09-22T17:20:42.189Z,1.70
2018-09-22T17:23:10.348Z,1.50
2018-09-22T17:25:39.519Z,1.77
2018-09-22T17:28:07.582Z,1.40
2018-09-22T17:30:35.629Z,1.73
2018-09-22T17:33:03.681Z,1.50
2018-09-22T17:35:31.832Z,1.70
2018-09-22T17:37:59.888Z,1.63
2018-09-22T17:40:27.999Z,1.60
2018-09-22T17:45:30.455Z,1.40
2018-09-22T17:47:58.560Z,1.87
2018-09-22T17:50:26.722Z,1.47
2018-09-22T17:52:54.801Z,1.60
2018-09-22T17:55:22.922Z,1.87
2018-09-22T17:57:51.079Z,1.60
2018-09-22T18:00:19.113Z,2.20
2018-09-22T18:02:47.425Z,1.67
2018-09-22T18:05:15.495Z,1.10
2018-09-22T18:07:43.535Z,1.43
2018-09-22T18:10:11.614Z,1.40
2018-09-22T18:12:39.871Z,1.40
2018-09-22T18:15:08.030Z,1.80
2018-09-22T18:17:36.461Z,1.63
2018-09-22T18:20:04.955Z,1.70
2018-09-22T18:22:33.072Z,1.70
2018-09-22T18:25:01.269Z,1.60
2018-09-22T18:27:29.469Z,1.80
2018-09-22T18:29:57.552Z,1.67
2018-09-22T18:32:25.593Z,1.77
2018-09-22T18:34:53.719Z,1.77
2018-09-22T18:37:22.031Z,1.80
2018-09-22T18:39:50.044Z,1.80
2018-09-22T18:42:18.098Z,1.83
2018-09-22T18:44:46.268Z,1.80
2018-09-22T18:47:14.289Z,1.40
2018-09-22T18:49:42.471Z,1.50
2018-09-22T18:52:10.497Z,1.87
2018-09-22T18:54:38.590Z,1.60
2018-09-22T18:57:06.655Z,1.60
2018-09-22T18:59:34.844Z,1.90
2018-09-22T19:02:02.920Z,1.83
2018-09-22T19:04:31.049Z,1.80
2018-09-22T19:06:59.116Z,2.10
2018-09-22T19:09:27.534Z,1.50
2018-09-22T19:11:55.650Z,1.90
2018-09-22T19:14:23.741Z,1.80
2018-09-22T19:16:51.958Z,1.63
2018-09-22T19:19:20.172Z,1.60
2018-09-22T19:21:48.248Z,2.10
2018-09-22T19:24:16.280Z,1.97
2018-09-22T19:26:44.316Z,1.40
2018-09-22T19:29:12.334Z,1.70
2018-09-22T19:31:40.445Z,1.37
2018-09-22T19:34:08.490Z,2.03
2018-09-22T19:36:36.566Z,1.67
2018-09-22T19:39:06.183Z,1.77
2018-09-22T19:41:34.241Z,1.90
2018-09-22T19:44:02.473Z,2.00
2018-09-22T19:46:30.565Z,2.20
2018-09-22T19:48:58.782Z,1.80
2018-09-22T19:51:26.947Z,1.60
2018-09-22T19:53:54.997Z,2.07
2018-09-22T19:56:23.084Z,1.50
2018-09-22T19:58:51.330Z,1.67
2018-09-22T20:01:19.471Z,2.00
2018-09-22T20:03:47.551Z,1.73
2018-09-22T20:06:15.665Z,2.20
2018-09-22T20:08:43.912Z,2.00
2018-09-22T20:11:12.072Z,2.37
2018-09-22T20:13:40.134Z,2.10
2018-09-22T20:16:08.518Z,1.60
2018-09-22T20:18:36.562Z,1.70
2018-09-22T20:21:04.718Z,1.97
2018-09-22T20:23:33.041Z,1.90
2018-09-22T20:26:01.170Z,2.43
2018-09-22T20:28:29.343Z,1.80
2018-09-22T20:30:57.370Z,1.83
2018-09-22T20:33:25.537Z,2.10
2018-09-22T20:35:53.704Z,2.10
2018-09-22T20:38:21.802Z,2.33
2018-09-22T20:40:49.882Z,1.50
2018-09-22T20:43:17.985Z,1.87
2018-09-22T20:45:46.125Z,2.27
2018-09-22T20:48:14.223Z,2.13
2018-09-22T20:50:42.416Z,2.13
2018-09-22T20:53:10.438Z,1.90
2018-09-22T20:55:38.505Z,2.17
2018-09-22T20:58:06.717Z,2.10
2018-09-22T21:00:34.835Z,2.57
2018-09-22T21:03:03.017Z,2.43
2018-09-22T21:05:31.173Z,2.30
2018-09-22T21:07:59.282Z,2.50
2018-09-22T21:10:27.402Z,2.40
2018-09-22T21:12:55.490Z,2.83
2018-09-22T21:15:23.622Z,2.10
2018-09-22T21:17:52.297Z,2.10
2018-09-22T21:20:20.394Z,1.90
2018-09-22T21:22:48.464Z,2.37
2018-09-22T21:25:16.545Z,1.77
2018-09-22T21:27:44.603Z,2.40
2018-09-22T21:30:12.770Z,2.37
2018-09-22T21:32:40.901Z,2.20
2018-09-22T21:35:09.006Z,2.20
2018-09-22T21:37:37.277Z,2.70
2018-09-22T21:40:05.389Z,2.87
2018-09-22T21:42:33.518Z,1.83
2018-09-22T21:45:01.710Z,2.60
2018-09-22T21:47:29.827Z,2.13
2018-09-22T21:49:57.948Z,2.03
2018-09-22T21:52:26.016Z,2.30
2018-09-22T21:54:54.232Z,2.50
2018-09-22T21:57:22.252Z,2.23
2018-09-22T21:59:50.434Z,2.50
2018-09-22T22:02:18.512Z,2.63
2018-09-22T22:04:46.637Z,2.53
2018-09-22T22:07:14.725Z,3.07
2018-09-22T22:09:42.906Z,2.77
2018-09-22T22:12:10.939Z,2.90
2018-09-22T22:14:38.999Z,2.87
2018-09-22T22:17:07.076Z,2.37
2018-09-22T22:19:35.117Z,2.70
2018-09-22T22:22:03.272Z,2.63
2018-09-22T22:24:31.353Z,2.80
2018-09-22T22:26:59.477Z,3.47
2018-09-22T22:29:27.513Z,2.77
2018-09-22T22:31:55.521Z,2.57
2018-09-22T22:34:23.564Z,2.50
2018-09-22T22:36:51.645Z,3.03
2018-09-22T22:39:19.682Z,2.80
2018-09-22T22:41:47.720Z,3.70
2018-09-22T22:44:15.828Z,3.50
2018-09-22T22:46:43.883Z,2.90
2018-09-22T22:49:12.058Z,3.20
2018-09-22T22:51:40.110Z,3.10
2018-09-22T22:54:08.683Z,3.73
2018-09-22T22:56:38.678Z,3.67
2018-09-22T22:59:06.790Z,3.30
2018-09-22T23:01:34.882Z,2.80
2018-09-22T23:04:03.010Z,3.57
2018-09-22T23:06:31.051Z,3.17
2018-09-22T23:08:59.153Z,3.80
2018-09-22T23:11:27.201Z,3.43
2018-09-22T23:13:55.386Z,4.63
2018-09-22T23:16:23.705Z,4.37
2018-09-22T23:18:51.744Z,4.07
2018-09-22T23:21:19.833Z,4.37
2018-09-22T23:23:47.884Z,3.40
2018-09-22T23:26:15.925Z,4.00
2018-09-22T23:28:43.940Z,3.33
2018-09-22T23:31:12.082Z,3.67
2018-09-22T23:33:40.107Z,4.00
2018-09-22T23:36:08.144Z,3.80
2018-09-22T23:38:36.187Z,3.60
2018-09-22T23:41:04.389Z,4.10
2018-09-22T23:43:32.446Z,3.77
2018-09-22T23:46:00.569Z,5.03
2018-09-22T23:48:28.617Z,3.80
2018-09-22T23:50:56.698Z,3.57
2018-09-22T23:53:24.824Z,4.87
2018-09-22T23:55:52.848Z,4.37
2018-09-22T23:58:20.912Z,4.93
